createdAt,value
2023-01-29T00:01:48.993Z,3.6
2023-01-29T00:06:53.617Z,3.6
2023-01-29T00:11:55.963Z,3.59
2023-01-29T00:16:54.522Z,3.59
2023-01-29T00:21:53.636Z,3.6
2023-01-29T00:26:52.400Z,3.59
2023-01-29T00:31:49.146Z,3.57
2023-01-29T00:36:52.103Z,3.59
2023-01-29T00:42:00.128Z,3.59
2023-01-29T00:46:50.491Z,3.59
2023-01-29T00:52:01.277Z,3.58
2023-01-29T00:56:48.831Z,3.58
2023-01-29T01:02:01.248Z,3.55
2023-01-29T01:07:00.601Z,3.58
2023-01-29T01:11:49.971Z,3.59
2023-01-29T01:16:48.807Z,3.6
2023-01-29T01:21:50.464Z,3.6
2023-01-29T01:26:48.994Z,3.59
2023-01-29T01:31:53.655Z,3.59
2023-01-29T01:37:03.204Z,3.59
2023-01-29T01:41:48.947Z,3.6
2023-01-29T01:46:52.902Z,3.61
2023-01-29T01:51:52.403Z,3.59
2023-01-29T01:56:52.332Z,3.57
2023-01-29T02:01:51.566Z,3.59
2023-01-29T02:07:00.450Z,3.56
2023-01-29T02:11:48.783Z,3.55
2023-01-29T02:16:50.831Z,3.56
2023-01-29T02:22:07.243Z,3.54
2023-01-29T02:26:55.323Z,3.52
2023-01-29T02:31:52.354Z,3.51
2023-01-29T02:36:50.891Z,3.5
2023-01-29T02:42:06.793Z,3.49
2023-01-29T02:46:55.571Z,3.48
2023-01-29T02:51:53.963Z,3.49
2023-01-29T02:56:54.769Z,3.48
2023-01-29T03:01:51.094Z,3.48
2023-01-29T03:07:03.860Z,3.47
2023-01-29T03:11:52.115Z,3.48
2023-01-29T03:16:58.814Z,3.47
2023-01-29T03:21:59.213Z,3.44
2023-01-29T03:27:17.299Z,3.47
2023-01-29T03:32:00.570Z,3.47
2023-01-29T03:36:50.900Z,3.48
2023-01-29T03:41:52.192Z,3.48
2023-01-29T03:46:55.103Z,3.48
2023-01-29T03:52:07.083Z,3.48
2023-01-29T03:57:03.728Z,3.48
2023-01-29T04:01:55.285Z,3.48
2023-01-29T04:06:59.441Z,3.48
2023-01-29T04:11:53.662Z,3.49
2023-01-29T04:16:52.328Z,3.48
2023-01-29T04:21:49.668Z,3.49
2023-01-29T04:26:59.994Z,3.51
2023-01-29T04:31:57.805Z,3.51
2023-01-29T04:37:09.990Z,3.51
2023-01-29T04:41:58.014Z,3.52
2023-01-29T04:51:58.036Z,3.53
2023-01-29T04:56:53.206Z,3.53
2023-01-29T05:01:49.402Z,3.54
2023-01-29T05:06:49.428Z,3.54
2023-01-29T05:11:54.489Z,3.55
2023-01-29T05:16:55.750Z,3.55
2023-01-29T05:21:53.512Z,3.55
2023-01-29T05:27:04.179Z,3.55
2023-01-29T05:31:50.513Z,3.56
2023-01-29T05:36:50.163Z,3.55
2023-01-29T05:41:54.333Z,3.57
2023-01-29T05:46:48.859Z,3.57
2023-01-29T05:51:51.378Z,3.57
2023-01-29T05:56:51.264Z,3.57
2023-01-29T06:01:48.807Z,3.57
2023-01-29T06:06:48.955Z,3.55
2023-01-29T06:11:50.606Z,3.57
2023-01-29T06:17:16.279Z,3.58
2023-01-29T06:21:50.389Z,3.58
2023-01-29T06:26:57.095Z,3.58
2023-01-29T06:31:51.281Z,3.59
2023-01-29T06:37:11.299Z,3.59
2023-01-29T06:41:49.646Z,3.58
2023-01-29T06:46:48.541Z,3.6
2023-01-29T06:51:52.435Z,3.59
2023-01-29T06:56:54.019Z,3.59
2023-01-29T07:02:02.358Z,3.62
2023-01-29T07:07:02.701Z,3.61
2023-01-29T07:11:48.718Z,3.6
2023-01-29T07:16:48.805Z,3.6
2023-01-29T07:21:48.909Z,3.6
2023-01-29T07:26:50.173Z,3.61
2023-01-29T07:35:30.222Z,3.6
2023-01-29T07:40:22.444Z,3.6
2023-01-29T07:45:26.033Z,3.6
2023-01-29T07:50:22.222Z,3.59
2023-01-29T07:55:23.367Z,3.6
2023-01-29T08:00:22.767Z,3.6
2023-01-29T08:05:22.349Z,3.6
2023-01-29T08:10:30.435Z,3.61
2023-01-29T08:15:22.237Z,3.62
2023-01-29T08:20:27.939Z,3.63
2023-01-29T08:25:38.406Z,3.65
2023-01-29T08:30:22.280Z,3.68
2023-01-29T08:35:22.214Z,3.7
2023-01-29T08:40:25.560Z,3.74
2023-01-29T08:45:22.152Z,3.76
2023-01-29T08:50:23.789Z,3.79
2023-01-29T08:55:23.024Z,3.81
2023-01-29T09:00:25.357Z,3.85
2023-01-29T09:05:22.243Z,3.89
2023-01-29T09:10:28.686Z,3.96
2023-01-29T09:15:26.784Z,4.01
2023-01-29T09:20:25.596Z,4.06
2023-01-29T09:25:24.489Z,4.11
2023-01-29T09:30:23.956Z,4.15
2023-01-29T09:35:22.011Z,4.2
2023-01-29T09:40:27.547Z,4.24
2023-01-29T09:45:26.753Z,4.28
2023-01-29T09:54:57.972Z,4.34
2023-01-29T09:59:47.838Z,4.39
2023-01-29T10:05:05.049Z,4.43
2023-01-29T10:10:09.514Z,4.34
2023-01-29T10:14:48.304Z,4.46
2023-01-29T10:19:55.676Z,4.41
2023-01-29T10:24:47.708Z,4.46
2023-01-29T10:29:51.855Z,4.48
2023-01-29T10:34:58.893Z,4.5
2023-01-29T10:39:53.643Z,4.51
2023-01-29T10:44:47.544Z,4.53
2023-01-29T10:50:23.171Z,4.58
2023-01-29T10:55:41.648Z,4.67
2023-01-29T11:00:26.303Z,4.69
2023-01-29T11:05:29.112Z,4.71
2023-01-29T11:10:29.318Z,4.73
2023-01-29T11:15:28.020Z,4.75
2023-01-29T11:20:31.873Z,4.77
2023-01-29T11:25:24.591Z,4.78
2023-01-29T11:30:31.629Z,4.8
2023-01-29T11:35:42.901Z,4.83
2023-01-29T11:40:42.883Z,4.85
2023-01-29T11:45:35.365Z,4.86
2023-01-29T11:50:28.512Z,4.87
2023-01-29T11:55:25.827Z,4.88
2023-01-29T12:00:27.166Z,4.89
2023-01-29T12:05:35.749Z,4.91
2023-01-29T12:10:41.883Z,4.93
2023-01-29T12:15:25.687Z,4.97
2023-01-29T12:20:30.773Z,5
2023-01-29T12:25:35.832Z,5.04
2023-01-29T12:30:28.217Z,5.08
2023-01-29T12:35:38.734Z,5.06
2023-01-29T12:40:23.532Z,5.06
2023-01-29T12:45:25.803Z,5.03
2023-01-29T12:50:27.678Z,5.02
2023-01-29T12:55:29.143Z,5
2023-01-29T13:00:24.446Z,4.97
2023-01-29T13:05:29.265Z,4.98
2023-01-29T13:10:24.781Z,4.94
2023-01-29T13:15:32.580Z,4.93
2023-01-29T13:20:30.348Z,4.91
2023-01-29T13:25:23.500Z,4.9
2023-01-29T13:30:36.664Z,4.92
2023-01-29T13:35:25.981Z,4.95
2023-01-29T13:40:28.419Z,4.98
2023-01-29T13:45:26.745Z,5.04
2023-01-29T13:50:31.572Z,5.06
2023-01-29T13:55:31.129Z,5.11
2023-01-29T14:00:34.892Z,5.13
2023-01-29T14:05:33.789Z,5.15
2023-01-29T14:10:23.802Z,5.15
2023-01-29T14:15:26.303Z,5.14
2023-01-29T14:20:32.309Z,5.15
2023-01-29T14:25:24.854Z,5.17
2023-01-29T14:30:24.111Z,5.18
2023-01-29T14:35:25.139Z,5.18
2023-01-29T14:40:24.956Z,5.17
2023-01-29T14:45:32.726Z,5.14
2023-01-29T14:50:37.524Z,5.12
2023-01-29T14:55:34.454Z,5.11
2023-01-29T15:00:26.635Z,5.1
2023-01-29T15:05:25.609Z,5.09
2023-01-29T15:10:26.987Z,5.08
2023-01-29T15:15:27.361Z,5.07
2023-01-29T15:20:38.717Z,5.05
2023-01-29T15:25:27.686Z,5.04
2023-01-29T15:30:23.957Z,5.02
2023-01-29T15:35:32.187Z,5
2023-01-29T15:40:23.423Z,4.99
2023-01-29T15:45:38.123Z,4.97
2023-01-29T15:50:23.020Z,4.96
2023-01-29T15:55:26.701Z,4.94
2023-01-29T16:00:35.788Z,4.93
2023-01-29T16:05:23.783Z,4.93
2023-01-29T16:10:27.777Z,4.93
2023-01-29T16:15:25.055Z,4.92
2023-01-29T16:20:28.139Z,4.91
2023-01-29T16:25:25.188Z,4.91
2023-01-29T16:30:24.505Z,4.91
2023-01-29T16:35:23.112Z,4.92
2023-01-29T16:40:32.927Z,4.92
2023-01-29T16:45:33.364Z,4.94
2023-01-29T16:50:46.331Z,4.94
2023-01-29T16:55:28.293Z,4.93
2023-01-29T17:00:33.349Z,4.93
2023-01-29T17:05:25.273Z,4.92
2023-01-29T17:10:25.471Z,4.91
2023-01-29T17:15:34.041Z,4.91
2023-01-29T17:20:24.208Z,4.93
2023-01-29T17:25:44.461Z,4.94
2023-01-29T17:30:44.738Z,4.94
2023-01-29T17:35:34.668Z,4.94
2023-01-29T17:40:31.250Z,4.94
2023-01-29T17:45:22.727Z,4.94
2023-01-29T17:50:56.965Z,4.93
2023-01-29T17:55:43.143Z,4.95
2023-01-29T18:00:30.181Z,4.95
2023-01-29T18:05:23.008Z,4.95
2023-01-29T18:10:24.943Z,4.95
2023-01-29T18:15:27.691Z,4.96
2023-01-29T18:20:36.462Z,4.97
2023-01-29T18:25:24.811Z,4.94
2023-01-29T18:30:22.807Z,4.93
2023-01-29T18:35:22.771Z,4.92
2023-01-29T18:48:57.733Z,4.95
2023-01-29T18:53:51.521Z,4.96
2023-01-29T18:58:55.271Z,4.96
2023-01-29T19:03:48.747Z,4.95
2023-01-29T19:08:47.497Z,4.95
2023-01-29T19:13:46.418Z,4.92
2023-01-29T19:18:44.012Z,4.91
2023-01-29T19:23:53.094Z,4.9
2023-01-29T19:28:47.597Z,4.89
2023-01-29T19:33:52.959Z,4.89
2023-01-29T19:38:48.864Z,4.91
2023-01-29T19:43:46.123Z,4.92
2023-01-29T19:49:01.634Z,4.91
2023-01-29T19:53:54.395Z,4.9
2023-01-29T19:58:48.936Z,4.88
2023-01-29T20:03:47.908Z,4.87
2023-01-29T20:08:49.808Z,4.89
2023-01-29T20:13:50.310Z,4.96
2023-01-29T20:18:50.495Z,5.04
2023-01-29T20:23:46.908Z,5.12
2023-01-29T20:28:45.250Z,5.19
2023-01-29T20:33:44.290Z,5.27
2023-01-29T20:38:43.962Z,5.32
2023-01-29T20:43:50.878Z,5.39
2023-01-29T20:48:43.962Z,5.44
2023-01-29T20:53:48.497Z,5.48
2023-01-29T21:02:01.456Z,5.56
2023-01-29T21:06:50.263Z,5.6
2023-01-29T21:11:48.685Z,5.64
2023-01-29T21:16:50.485Z,5.68
2023-01-29T21:21:56.773Z,5.71
2023-01-29T21:26:48.555Z,5.74
2023-01-29T21:31:58.725Z,5.77
2023-01-29T21:36:48.385Z,5.79
2023-01-29T21:42:02.505Z,5.78
2023-01-29T21:46:53.170Z,5.75
2023-01-29T21:51:50.729Z,5.73
2023-01-29T21:56:50.168Z,5.71
2023-01-29T22:01:54.200Z,5.73
2023-01-29T22:06:48.141Z,5.73
2023-01-29T22:11:48.004Z,5.74
2023-01-29T22:16:56.678Z,5.74
2023-01-29T22:21:48.118Z,5.76
2023-01-29T22:26:54.778Z,5.77
2023-01-29T22:31:53.397Z,5.81
2023-01-29T22:36:52.799Z,5.86
2023-01-29T22:41:53.354Z,5.86
2023-01-29T22:46:51.116Z,5.94
2023-01-29T22:51:50.433Z,5.97
2023-01-29T22:56:47.994Z,6.01
2023-01-29T23:01:48.139Z,6.04
2023-01-29T23:06:48.111Z,6.05
2023-01-29T23:11:51.840Z,6.04
2023-01-29T23:16:47.730Z,6.04
2023-01-29T23:21:49.150Z,6.08
2023-01-29T23:26:59.460Z,6.08
2023-01-29T23:31:56.000Z,6.12
2023-01-29T23:36:49.431Z,6.12
2023-01-29T23:41:50.559Z,6.13
2023-01-29T23:46:48.116Z,6.12
2023-01-29T23:51:48.117Z,6.12
2023-01-29T23:56:50.557Z,6.12
